createdAt,value
2018-04-30T00:00:53.756Z,75.40
2018-04-30T00:03:22.572Z,67.33
2018-04-30T00:05:51.320Z,61.80
2018-04-30T00:08:20.297Z,58.43
2018-04-30T00:10:49.104Z,56.17
2018-04-30T00:13:17.868Z,59.73
2018-04-30T00:15:46.701Z,53.50
2018-04-30T00:18:15.637Z,55.47
2018-04-30T00:20:44.520Z,55.90
2018-04-30T00:23:13.340Z,58.30
2018-04-30T00:25:42.154Z,56.43
2018-04-30T00:28:11.120Z,53.47
2018-04-30T00:30:40.137Z,47.53
2018-04-30T00:33:08.967Z,44.07
2018-04-30T00:35:37.742Z,43.40
2018-04-30T00:38:06.529Z,44.03
2018-04-30T00:40:35.750Z,47.67
2018-04-30T00:43:04.683Z,53.53
2018-04-30T00:45:33.561Z,54.13
2018-04-30T00:48:02.432Z,47.17
2018-04-30T00:50:31.393Z,44.57
2018-04-30T00:53:00.405Z,43.90
2018-04-30T00:55:29.277Z,43.63
2018-04-30T00:57:58.238Z,43.43
2018-04-30T01:00:27.198Z,42.77
2018-04-30T01:02:56.783Z,42.73
2018-04-30T01:05:25.544Z,43.50
2018-04-30T01:07:54.265Z,43.00
2018-04-30T01:10:23.257Z,42.30
2018-04-30T01:12:52.052Z,42.40
2018-04-30T01:15:20.875Z,42.33
2018-04-30T01:17:49.770Z,42.20
2018-04-30T01:20:18.669Z,41.00
2018-04-30T01:22:47.492Z,38.90
2018-04-30T01:25:16.386Z,40.20
2018-04-30T01:27:45.208Z,40.73
2018-04-30T01:30:14.909Z,39.90
2018-04-30T01:32:44.486Z,42.43
2018-04-30T01:35:13.343Z,43.30
2018-04-30T01:37:42.717Z,45.30
2018-04-30T01:40:12.609Z,46.53
2018-04-30T01:42:41.585Z,46.27
2018-04-30T01:45:11.217Z,47.13
2018-04-30T01:47:40.982Z,45.77
2018-04-30T01:50:09.880Z,44.30
2018-04-30T01:52:38.697Z,44.60
2018-04-30T01:55:07.839Z,43.73
2018-04-30T01:57:37.568Z,46.70
2018-04-30T02:00:06.658Z,49.20
2018-04-30T02:02:35.522Z,52.93
2018-04-30T02:05:05.101Z,54.83
2018-04-30T02:07:34.404Z,58.17
2018-04-30T02:10:03.646Z,58.93
2018-04-30T02:12:32.440Z,58.77
2018-04-30T02:15:01.607Z,60.83
2018-04-30T02:17:30.392Z,59.87
2018-04-30T02:19:59.137Z,62.50
2018-04-30T02:22:27.913Z,61.60
2018-04-30T02:24:56.828Z,64.67
2018-04-30T02:27:25.943Z,65.13
2018-04-30T02:29:54.645Z,69.40
2018-04-30T02:32:24.246Z,72.93
2018-04-30T02:34:52.985Z,72.93
2018-04-30T02:37:21.815Z,70.70
2018-04-30T02:39:51.484Z,70.83
2018-04-30T02:42:20.372Z,73.47
2018-04-30T02:44:49.355Z,71.33
2018-04-30T02:47:18.458Z,68.30
2018-04-30T02:49:47.183Z,68.30
2018-04-30T02:52:16.808Z,67.60
2018-04-30T02:54:45.574Z,69.03
2018-04-30T02:57:14.377Z,69.23
2018-04-30T02:59:43.365Z,66.83
2018-04-30T03:02:12.472Z,70.47
2018-04-30T03:04:41.935Z,67.90
2018-04-30T03:07:10.747Z,67.63
2018-04-30T03:09:39.712Z,66.83
2018-04-30T03:12:08.708Z,68.07
2018-04-30T03:14:37.941Z,64.27
2018-04-30T03:17:07.010Z,69.13
2018-04-30T03:19:35.861Z,69.40
2018-04-30T03:22:04.710Z,68.77
2018-04-30T03:24:33.624Z,67.43
2018-04-30T03:27:02.445Z,65.47
2018-04-30T03:29:31.250Z,65.93
2018-04-30T03:32:00.081Z,61.90
2018-04-30T03:34:28.957Z,60.93
2018-04-30T03:36:57.967Z,56.53
2018-04-30T03:39:27.018Z,58.60
2018-04-30T03:41:55.793Z,56.93
2018-04-30T03:44:24.649Z,58.10
2018-04-30T03:46:53.521Z,55.33
2018-04-30T03:49:23.323Z,57.07
2018-04-30T03:51:53.247Z,59.77
2018-04-30T03:54:22.833Z,57.20
2018-04-30T03:56:51.590Z,67.20
2018-04-30T03:59:20.337Z,64.40
2018-04-30T04:02:00.913Z,66.53
2018-04-30T04:07:32.073Z,65.00
2018-04-30T04:10:00.979Z,66.57
2018-04-30T04:12:30.602Z,67.80
2018-04-30T04:14:59.449Z,69.00
2018-04-30T04:17:29.335Z,69.03
2018-04-30T04:19:58.167Z,65.63
2018-04-30T04:22:27.847Z,64.53
2018-04-30T04:24:56.645Z,65.27
2018-04-30T04:27:25.453Z,66.77
2018-04-30T04:29:54.576Z,70.07
2018-04-30T04:32:23.575Z,70.97
2018-04-30T04:34:52.779Z,68.73
2018-04-30T04:37:22.021Z,71.40
2018-04-30T04:39:51.031Z,72.27
2018-04-30T04:42:24.877Z,77.10
2018-04-30T04:44:55.969Z,81.23
2018-04-30T04:47:24.931Z,74.23
2018-04-30T04:49:55.839Z,79.53
2018-04-30T04:52:25.113Z,75.07
2018-04-30T04:54:54.718Z,75.43
2018-04-30T04:57:24.015Z,72.50
2018-04-30T04:59:53.668Z,72.20
2018-04-30T05:02:23.384Z,69.67
2018-04-30T05:04:53.080Z,73.83
2018-04-30T05:07:21.996Z,77.97
2018-04-30T05:09:51.831Z,77.80
2018-04-30T05:15:21.360Z,82.07
2018-04-30T05:17:50.802Z,80.07
2018-04-30T05:20:19.997Z,86.87
2018-04-30T05:22:48.837Z,84.40
2018-04-30T05:25:18.020Z,78.33
2018-04-30T05:27:46.831Z,77.97
2018-04-30T05:30:15.774Z,81.20
2018-04-30T05:32:44.540Z,81.37
2018-04-30T05:35:13.496Z,83.57
2018-04-30T05:37:42.376Z,85.07
2018-04-30T05:40:11.228Z,85.83
2018-04-30T05:42:40.444Z,83.90
2018-04-30T05:45:09.335Z,85.40
2018-04-30T05:47:38.292Z,86.07
2018-04-30T05:50:07.687Z,85.37
2018-04-30T05:52:36.599Z,85.87
2018-04-30T05:55:05.432Z,87.83
2018-04-30T05:57:34.161Z,91.73
2018-04-30T06:00:03.840Z,93.93
2018-04-30T06:02:32.801Z,93.47
2018-04-30T06:05:01.508Z,94.57
2018-04-30T06:07:31.023Z,90.13
2018-04-30T06:09:59.814Z,91.23
2018-04-30T06:12:28.578Z,89.57
2018-04-30T06:14:57.400Z,75.33
2018-04-30T06:17:26.837Z,75.00
2018-04-30T06:19:55.673Z,72.07
2018-04-30T06:22:24.495Z,71.83
2018-04-30T06:24:53.295Z,73.50
2018-04-30T06:27:22.048Z,73.63
2018-04-30T06:29:51.505Z,77.67
2018-04-30T06:32:21.017Z,78.30
2018-04-30T06:34:49.933Z,79.43
2018-04-30T06:37:19.325Z,76.53
2018-04-30T06:39:48.066Z,79.63
2018-04-30T06:42:17.879Z,77.67
2018-04-30T06:44:46.677Z,81.20
2018-04-30T06:47:15.321Z,83.47
2018-04-30T06:49:44.200Z,82.20
2018-04-30T06:52:13.741Z,77.97
2018-04-30T06:54:43.757Z,80.70
2018-04-30T06:57:12.552Z,79.93
2018-04-30T06:59:41.578Z,80.07
2018-04-30T07:02:10.350Z,79.20
2018-04-30T07:04:39.637Z,76.63
2018-04-30T07:07:08.372Z,73.47
2018-04-30T07:09:38.095Z,74.40
2018-04-30T07:12:06.685Z,77.77
2018-04-30T07:14:35.830Z,85.00
2018-04-30T07:17:05.026Z,81.47
2018-04-30T07:19:33.689Z,81.90
2018-04-30T07:22:02.516Z,81.13
2018-04-30T07:24:31.418Z,80.43
2018-04-30T07:27:00.341Z,76.93
2018-04-30T07:29:29.307Z,76.20
2018-04-30T07:31:58.514Z,75.20
2018-04-30T07:34:27.270Z,72.57
2018-04-30T07:36:57.193Z,72.90
2018-04-30T07:39:26.947Z,68.93
2018-04-30T07:41:55.758Z,68.00
2018-04-30T07:44:25.559Z,67.77
2018-04-30T07:46:55.143Z,66.37
2018-04-30T07:49:24.097Z,66.33
2018-04-30T07:51:52.931Z,64.73
2018-04-30T07:54:22.479Z,63.20
2018-04-30T07:56:51.693Z,63.50
2018-04-30T07:59:20.755Z,58.60
2018-04-30T08:01:50.332Z,58.20
2018-04-30T08:04:19.514Z,59.80
2018-04-30T08:06:48.284Z,58.73
2018-04-30T08:09:17.256Z,58.50
2018-04-30T08:11:46.241Z,56.53
2018-04-30T08:14:15.312Z,57.33
2018-04-30T08:16:44.854Z,57.60
2018-04-30T08:19:14.163Z,59.53
2018-04-30T08:21:43.126Z,58.20
2018-04-30T08:24:11.997Z,58.20
2018-04-30T08:26:40.737Z,58.20
2018-04-30T08:29:09.501Z,54.97
2018-04-30T08:31:38.313Z,58.67
2018-04-30T08:34:07.862Z,54.43
2018-04-30T08:36:36.716Z,58.47
2018-04-30T08:39:06.313Z,56.47
2018-04-30T08:41:35.189Z,55.77
2018-04-30T08:44:04.166Z,58.77
2018-04-30T08:46:32.940Z,57.20
2018-04-30T08:49:02.387Z,57.57
2018-04-30T08:51:31.353Z,57.77
2018-04-30T08:54:00.074Z,56.47
2018-04-30T08:56:28.813Z,55.67
2018-04-30T08:58:58.312Z,59.10
2018-04-30T09:01:28.336Z,58.33
2018-04-30T09:03:57.472Z,59.87
2018-04-30T09:06:27.645Z,59.67
2018-04-30T09:08:58.053Z,57.13
2018-04-30T09:11:27.975Z,57.43
2018-04-30T09:14:02.744Z,58.90
2018-04-30T09:16:32.151Z,59.13
2018-04-30T09:19:02.263Z,60.63
2018-04-30T09:21:31.798Z,60.00
2018-04-30T09:24:00.698Z,58.17
2018-04-30T09:26:30.655Z,59.67
2018-04-30T09:29:00.089Z,59.03
2018-04-30T09:31:28.774Z,59.97
2018-04-30T09:33:57.787Z,58.37
2018-04-30T09:36:26.597Z,57.53
2018-04-30T09:38:55.699Z,58.73
2018-04-30T09:41:24.662Z,59.70
2018-04-30T09:43:53.522Z,58.43
2018-04-30T09:46:22.435Z,56.03
2018-04-30T09:48:51.156Z,56.50
2018-04-30T09:51:20.150Z,61.17
2018-04-30T09:53:49.106Z,57.83
2018-04-30T09:56:18.634Z,57.20
2018-04-30T09:58:47.528Z,56.83
2018-04-30T10:01:16.248Z,57.20
2018-04-30T10:03:45.822Z,53.80
2018-04-30T10:06:15.035Z,54.10
2018-04-30T10:08:43.845Z,54.63
2018-04-30T10:11:13.313Z,55.97
2018-04-30T10:13:42.130Z,53.80
2018-04-30T10:16:10.946Z,56.97
2018-04-30T10:18:39.680Z,54.40
2018-04-30T10:21:08.603Z,51.20
2018-04-30T10:23:38.294Z,52.13
2018-04-30T10:26:07.006Z,51.83
2018-04-30T10:28:36.791Z,50.43
2018-04-30T10:31:05.576Z,50.17
2018-04-30T10:33:35.572Z,51.23
2018-04-30T10:36:04.353Z,49.83
2018-04-30T10:38:33.149Z,52.87
2018-04-30T10:41:02.019Z,52.70
2018-04-30T10:43:30.920Z,52.80
2018-04-30T10:45:59.761Z,52.40
2018-04-30T10:48:29.380Z,50.73
2018-04-30T10:50:58.140Z,53.27
2018-04-30T10:53:26.880Z,54.23
2018-04-30T10:55:55.667Z,51.17
2018-04-30T10:58:25.421Z,53.77
2018-04-30T11:00:54.241Z,51.47
2018-04-30T11:03:23.736Z,52.40
2018-04-30T11:05:53.409Z,54.10
2018-04-30T11:08:22.341Z,53.93
2018-04-30T11:10:52.014Z,53.77
2018-04-30T11:13:20.901Z,53.73
2018-04-30T11:15:49.693Z,54.33
2018-04-30T11:18:18.772Z,53.37
2018-04-30T11:20:47.580Z,55.43
2018-04-30T11:23:16.815Z,54.87
2018-04-30T11:25:46.729Z,52.97
2018-04-30T11:28:15.714Z,54.93
2018-04-30T11:30:45.545Z,53.37
2018-04-30T11:33:14.340Z,52.00
2018-04-30T11:35:44.128Z,53.90
2018-04-30T11:38:12.902Z,55.87
2018-04-30T11:40:42.327Z,55.53
2018-04-30T11:43:12.029Z,54.40
2018-04-30T11:45:41.342Z,53.53
2018-04-30T11:48:10.431Z,52.70
2018-04-30T11:50:39.303Z,51.60
2018-04-30T11:53:08.820Z,51.03
2018-04-30T11:55:37.662Z,51.63
2018-04-30T11:58:06.778Z,51.10
2018-04-30T12:00:36.377Z,47.67
2018-04-30T12:03:05.199Z,48.77
2018-04-30T12:05:34.805Z,49.77
2018-04-30T12:08:03.653Z,48.60
2018-04-30T12:10:32.350Z,51.03
2018-04-30T12:13:01.123Z,49.87
2018-04-30T12:15:29.860Z,51.60
2018-04-30T12:17:59.366Z,51.63
2018-04-30T12:20:28.314Z,49.47
2018-04-30T12:22:57.356Z,49.93
2018-04-30T12:25:26.202Z,48.37
2018-04-30T12:27:56.243Z,51.60
2018-04-30T12:30:25.649Z,50.17
2018-04-30T12:32:54.969Z,49.10
2018-04-30T12:35:24.412Z,48.63
2018-04-30T12:37:53.727Z,48.00
2018-04-30T12:40:23.179Z,46.60
2018-04-30T12:42:53.221Z,45.47
2018-04-30T12:45:28.639Z,47.17
2018-04-30T12:47:57.814Z,49.23
2018-04-30T12:50:26.880Z,51.50
2018-04-30T12:52:56.378Z,47.60
2018-04-30T12:55:25.076Z,47.87
2018-04-30T12:57:54.315Z,48.50
2018-04-30T13:00:24.268Z,46.37
2018-04-30T13:02:53.129Z,49.47
2018-04-30T13:05:22.242Z,45.93
2018-04-30T13:07:51.985Z,46.20
2018-04-30T13:10:21.235Z,47.80
2018-04-30T13:12:50.039Z,45.90
2018-04-30T13:15:19.195Z,43.07
2018-04-30T13:17:48.266Z,43.37
2018-04-30T13:20:17.905Z,43.40
2018-04-30T13:22:46.787Z,43.67
2018-04-30T13:25:15.669Z,44.20
2018-04-30T13:27:45.255Z,43.27
2018-04-30T13:30:14.289Z,45.10
2018-04-30T13:32:43.415Z,42.80
2018-04-30T13:35:13.207Z,43.77
2018-04-30T13:37:43.664Z,43.10
2018-04-30T13:40:12.390Z,44.50
2018-04-30T13:42:41.296Z,44.47
2018-04-30T13:45:10.607Z,44.10
2018-04-30T13:47:39.711Z,42.63
2018-04-30T13:50:09.309Z,44.50
2018-04-30T13:52:38.056Z,42.93
2018-04-30T13:55:07.028Z,42.67
2018-04-30T13:57:35.673Z,42.00
2018-04-30T14:00:05.452Z,40.93
2018-04-30T14:02:34.229Z,41.03
2018-04-30T14:05:03.088Z,42.03
2018-04-30T14:07:32.185Z,42.07
2018-04-30T14:10:01.011Z,42.80
2018-04-30T14:12:29.894Z,39.50
2018-04-30T14:14:58.658Z,37.13
2018-04-30T14:17:27.952Z,40.03
2018-04-30T14:19:57.477Z,34.43
2018-04-30T14:22:29.820Z,33.37
2018-04-30T14:24:59.850Z,32.97
2018-04-30T14:40:28.886Z,31.47
2018-04-30T14:42:57.515Z,30.37
2018-04-30T14:45:26.970Z,30.93
2018-04-30T14:47:56.124Z,29.10
2018-04-30T14:50:25.598Z,27.77
2018-04-30T14:52:56.100Z,29.30
2018-04-30T14:55:24.965Z,29.77
2018-04-30T14:57:53.776Z,27.23
2018-04-30T15:00:23.059Z,28.43
2018-04-30T15:02:52.093Z,29.30
2018-04-30T15:05:21.625Z,30.57
2018-04-30T15:07:50.371Z,29.10
2018-04-30T15:10:19.282Z,30.63
2018-04-30T15:12:48.788Z,30.87
2018-04-30T15:15:18.417Z,30.63
2018-04-30T15:17:47.136Z,29.33
2018-04-30T15:20:15.923Z,29.50
2018-04-30T15:22:45.025Z,28.00
2018-04-30T15:25:15.758Z,29.57
2018-04-30T15:27:44.590Z,30.40
2018-04-30T15:30:14.161Z,31.17
2018-04-30T15:32:42.909Z,31.57
2018-04-30T15:35:11.698Z,31.80
2018-04-30T15:37:40.831Z,30.87
2018-04-30T15:40:10.410Z,32.23
2018-04-30T15:42:39.181Z,32.13
2018-04-30T15:45:08.171Z,29.73
2018-04-30T15:47:36.991Z,29.70
2018-04-30T15:50:06.481Z,29.33
2018-04-30T15:52:35.189Z,29.87
2018-04-30T15:55:04.189Z,30.63
2018-04-30T15:57:32.850Z,31.10
2018-04-30T16:00:01.741Z,33.63
2018-04-30T16:02:30.745Z,33.30
2018-04-30T16:04:59.788Z,33.57
2018-04-30T16:07:29.255Z,36.77
2018-04-30T16:09:58.202Z,39.53
2018-04-30T16:12:27.009Z,37.97
2018-04-30T16:14:56.538Z,40.67
2018-04-30T16:17:25.363Z,40.47
2018-04-30T16:19:54.693Z,41.73
2018-04-30T16:22:23.577Z,38.80
2018-04-30T16:24:52.558Z,40.87
2018-04-30T16:27:22.084Z,41.67
2018-04-30T16:29:51.177Z,39.23
2018-04-30T16:32:20.016Z,38.40
2018-04-30T16:34:48.944Z,41.23
2018-04-30T16:37:17.969Z,42.87
2018-04-30T16:39:46.888Z,41.47
2018-04-30T16:42:15.639Z,39.53
2018-04-30T16:44:44.320Z,39.00
2018-04-30T16:47:13.326Z,42.73
2018-04-30T16:49:42.061Z,40.43
2018-04-30T16:52:11.617Z,40.07
2018-04-30T16:54:40.804Z,45.20
2018-04-30T16:57:11.395Z,40.07
2018-04-30T16:59:40.410Z,37.50
2018-04-30T17:02:10.271Z,47.70
2018-04-30T17:04:40.161Z,38.27
2018-04-30T17:07:09.603Z,38.00
2018-04-30T17:09:38.973Z,35.93
2018-04-30T17:12:07.863Z,36.53
2018-04-30T17:14:37.749Z,39.57
2018-04-30T17:17:10.203Z,41.00
2018-04-30T17:19:40.442Z,41.67
2018-04-30T17:22:11.203Z,41.20
2018-04-30T17:24:40.270Z,42.67
2018-04-30T17:27:09.816Z,42.57
2018-04-30T17:29:39.091Z,43.67
2018-04-30T17:32:07.832Z,43.07
2018-04-30T17:34:36.551Z,45.00
2018-04-30T17:37:06.058Z,42.97
2018-04-30T17:39:35.535Z,42.00
2018-04-30T17:42:05.395Z,43.30
2018-04-30T17:44:34.570Z,42.30
2018-04-30T17:47:04.138Z,43.17
2018-04-30T17:49:32.874Z,49.47
2018-04-30T17:52:01.711Z,47.20
2018-04-30T17:54:30.670Z,50.37
2018-04-30T17:56:59.550Z,49.43
2018-04-30T17:59:29.042Z,49.97
2018-04-30T18:01:58.904Z,47.23
2018-04-30T18:04:27.753Z,47.57
2018-04-30T18:06:56.733Z,46.70
2018-04-30T18:09:25.498Z,48.13
2018-04-30T18:11:54.288Z,47.33
2018-04-30T18:14:23.874Z,47.67
2018-04-30T18:16:53.763Z,50.10
2018-04-30T18:19:22.645Z,48.80
2018-04-30T18:21:52.413Z,48.80
2018-04-30T18:24:21.966Z,48.70
2018-04-30T18:26:51.685Z,47.93
2018-04-30T18:29:20.321Z,46.80
2018-04-30T18:31:49.827Z,46.40
2018-04-30T18:34:19.316Z,46.07
2018-04-30T18:36:48.097Z,46.00
2018-04-30T18:39:19.762Z,47.20
2018-04-30T18:54:48.772Z,47.00
2018-04-30T18:57:18.701Z,46.50
2018-04-30T18:59:47.603Z,44.93
2018-04-30T19:02:16.329Z,45.47
2018-04-30T19:04:45.227Z,46.13
2018-04-30T19:07:14.304Z,47.30
2018-04-30T19:09:43.039Z,46.83
2018-04-30T19:12:12.521Z,48.50
2018-04-30T19:14:41.318Z,45.13
2018-04-30T19:17:10.880Z,46.70
2018-04-30T19:19:39.641Z,46.80
2018-04-30T19:22:08.552Z,48.33
2018-04-30T19:24:37.509Z,47.57
2018-04-30T19:27:07.098Z,53.95
2018-04-30T19:29:36.009Z,48.33
2018-04-30T19:32:05.511Z,50.23
2018-04-30T19:34:35.105Z,51.03
2018-04-30T19:37:03.885Z,50.33
2018-04-30T19:39:32.718Z,52.33
2018-04-30T19:42:01.505Z,52.10
2018-04-30T19:44:30.180Z,52.77
2018-04-30T19:46:59.638Z,52.63
2018-04-30T19:49:28.361Z,54.07
2018-04-30T19:51:57.957Z,53.37
2018-04-30T19:54:27.167Z,53.53
2018-04-30T19:56:57.630Z,54.53
2018-04-30T19:59:27.018Z,55.87
2018-04-30T20:01:55.788Z,55.83
2018-04-30T20:04:24.681Z,55.53
2018-04-30T20:06:53.766Z,56.00
2018-04-30T20:09:23.444Z,57.17
2018-04-30T20:11:53.089Z,54.07
2018-04-30T20:14:22.677Z,55.17
2018-04-30T20:16:51.332Z,55.03
2018-04-30T20:19:20.185Z,57.33
2018-04-30T20:21:49.791Z,55.87
2018-04-30T20:24:18.633Z,56.10
2018-04-30T20:26:47.628Z,55.83
2018-04-30T20:29:17.052Z,55.87
2018-04-30T20:31:47.432Z,56.17
2018-04-30T20:44:01.296Z,56.40
2018-04-30T20:46:30.105Z,56.57
2018-04-30T20:48:59.270Z,59.07
2018-04-30T20:51:29.457Z,59.80
2018-04-30T20:53:59.557Z,57.53
2018-04-30T20:56:30.056Z,57.77
2018-04-30T20:58:59.521Z,57.70
2018-04-30T21:01:28.728Z,57.20
2018-04-30T21:03:57.681Z,56.40
2018-04-30T21:06:27.694Z,56.93
2018-04-30T21:09:08.437Z,58.00
2018-04-30T21:11:37.604Z,58.93
2018-04-30T21:14:06.478Z,57.20
2018-04-30T21:16:35.415Z,58.53
2018-04-30T21:19:04.256Z,58.07
2018-04-30T21:21:33.101Z,60.13
2018-04-30T21:24:02.804Z,57.77
2018-04-30T21:26:31.653Z,58.53
2018-04-30T21:29:00.535Z,59.83
2018-04-30T21:31:29.471Z,58.37
2018-04-30T21:33:59.159Z,59.83
2018-04-30T21:36:27.951Z,60.63
2018-04-30T21:38:56.618Z,67.43
2018-04-30T21:41:25.443Z,63.03
2018-04-30T21:43:55.115Z,60.57
2018-04-30T21:46:24.966Z,61.73
2018-04-30T21:48:54.396Z,58.57
2018-04-30T21:51:23.368Z,58.07
2018-04-30T21:53:52.029Z,59.40
2018-04-30T21:56:20.845Z,60.07
2018-04-30T21:58:50.471Z,59.37
2018-04-30T22:01:19.281Z,60.17
2018-04-30T22:03:48.147Z,59.93
2018-04-30T22:06:17.170Z,64.23
2018-04-30T22:08:46.018Z,58.23
2018-04-30T22:11:15.629Z,60.03
2018-04-30T22:13:45.268Z,62.23
2018-04-30T22:16:14.006Z,59.73
2018-04-30T22:18:42.905Z,60.27
2018-04-30T22:34:12.957Z,58.93
2018-04-30T22:36:41.807Z,60.50
2018-04-30T22:39:11.353Z,61.23
2018-04-30T22:41:40.138Z,59.40
2018-04-30T22:44:08.918Z,59.87
2018-04-30T22:46:37.736Z,59.00
2018-04-30T22:49:07.496Z,57.37
2018-04-30T22:51:37.066Z,59.03
2018-04-30T22:54:06.033Z,56.57
2018-04-30T22:56:34.885Z,57.60
2018-04-30T22:59:04.514Z,55.77
2018-04-30T23:01:33.325Z,56.20
2018-04-30T23:04:02.341Z,55.30
2018-04-30T23:06:31.301Z,57.10
2018-04-30T23:09:00.879Z,57.63
2018-04-30T23:11:30.442Z,57.47
2018-04-30T23:13:59.325Z,57.10
2018-04-30T23:16:29.374Z,58.50
2018-04-30T23:18:58.317Z,55.60
2018-04-30T23:21:27.083Z,54.27
2018-04-30T23:23:55.860Z,56.57
2018-04-30T23:26:24.701Z,56.90
2018-04-30T23:28:53.678Z,57.37
2018-04-30T23:31:22.726Z,57.60
2018-04-30T23:33:52.316Z,53.83
2018-04-30T23:36:21.124Z,52.97
2018-04-30T23:38:50.856Z,55.53
2018-04-30T23:41:19.647Z,56.77
2018-04-30T23:43:49.211Z,54.70
2018-04-30T23:46:18.301Z,54.80
2018-04-30T23:48:47.519Z,57.80
2018-04-30T23:51:17.039Z,56.10
2018-04-30T23:53:46.128Z,56.17
2018-04-30T23:56:15.006Z,55.27
2018-04-30T23:58:43.792Z,54.37
